Concordia, Kansas
Current Conditions -  °F | °C
As of 11:55 PM on Wednesday 26 Nov 2014 (Local Time) from KCNK Reporting Station
Clear Clear  
Wind Chill: -9°   Ceiling: Unl
Heat Index: -6°   Visibility: 10mi
Dew Point: -9°   Wind: 5mph
Humidity: 78%   Direction: 20°NNE
Pressure: 30.46"   Gusts: NA
Location:  39.57°N, 97.66°W
Report Text: KCNK 270555Z AUTO 02004KT 10SM CLR M06/M09 A3046 RMK AO2 SLP331 T10561089 11006 21061 400671061 51013
Loading
Personal Weather Stations






























Interactive Weather Map New forecast layout! Learn more

10-Day Weather Forecast

Advertisements
Track Severe Weather on mobile